Anton, Colorado
Current Conditions -  °F | °C
As of 5:53 PM on Friday 24 Oct 2014 (Local Time) from KAKO Reporting Station
Clear Clear  
Wind Chill: 72°   Ceiling: Unl
Heat Index: 72°   Visibility: 10mi
Dew Point: 27°   Wind: 5mph
Humidity: 19%   Direction: 180°S
Pressure: 30.13"   Gusts: NA
Location:  39.74°N, 103.22°W
Report Text: KAKO 242353Z AUTO 18004KT 10SM CLR 22/M03 A3013 RMK AO2 SLP158 T02221028 10272 20222 53004
Loading
Personal Weather Stations






























Interactive Weather Map
Tropical Storm Tracking
New forecast layout! Learn more

10-Day Weather Forecast

Advertisements
Track Severe Weather on mobile